United States > Florida

Boca Raton, FL (33428)

3:22 AM EDT on July 07, 2015 (GMT -0400)
Boca (C6162) | | Change Station
CLOSE
Current Station
Personal Weather Station
Location: Boca Raton, FL
Elevation: 12 ft
Nearby Weather Stations

Elev 12 ft 26.34 °N, 80.21 °W | Updated 21 seconds ago

Partly Cloudy
Partly Cloudy
78.8 °F
Feels Like 82 °F
N
0.0
Wind Variable Wind from NW
Gusts 0.0 mph

Today
High -- | Low -- °F
--% Chance of Precip.
Yesterday
High -- | Low -- °F
Precip. -- in
6:33 AM 8:17 PM
Waning Gibbous, 67% visible
Pressure 30.10 in
Visibility 9.0 miles
Clouds Few 2300 ft
Heat Index 82 °F
Dew Point 76 °F
Humidity 90%
Rainfall 0.00 in
Snow Depth Not available.
UV 0.0 out of 12
Pollen 4.60 out of 12
Air Quality Not available.
Flu Activity Not available.
METAR KPMP 070653Z AUTO 10007KT 9SM FEW023 28/23 A3009 RMK AO2 SLP192 T02830233

More Conditions Fewer Conditions

Pressure 30.10 in
Visibility 9.0 miles
Clouds Few 2300 ft
Heat Index 82 °F
Dew Point 76 °F
Humidity 90%
Rainfall 0.00 in
Snow Depth Not available.
UV 0.0 out of 12
Pollen 4.60 out of 12
Air Quality Not available.
Flu Activity Not available.
METAR KPMP 070653Z AUTO 10007KT 9SM FEW023 28/23 A3009 RMK AO2 SLP192 T02830233

More Conditions Fewer Conditions

10-Day Weather Forecast

×

Almanac

Astronomy

Jul. 07, 2015 Rise Set
Actual Time
Civil Twilight
Nautical Twilight
Astronomical Twilight
Moon
Length of Visible Light
Length of Day
Tomorrow will be .
, % of the Moon is Illuminated

Today's Extremes

State Highs State Lows

Community

WunderPhotos

Upload Photos

1,835,756 photos uploaded!

WunderBlogs® & News

Nearby

Air Quality

  Air Quality AQ Index Pollutant
Not available.

Snow Depth

Station Depth Elevation

Earthquake Activity

City Distance Mag. Time & Date
Minimum magnitude displayed is 2.5.

Coastal Water Temperatures

Place Temperature

Stations

Nearby Weather Stations

Station Location Temp. Windchill Dew Point Humidity Wind Precip. Elev Updated Type